Creston, Indiana
Current Conditions -  °F | °C
As of 8:15 AM on Wednesday 26 Nov 2014 (Local Time) from KIGQ Reporting Station
Overcast Overcast  
Wind Chill: 17°   Ceiling: 1400
Heat Index: 24°   Visibility: 10mi
Dew Point: 19°   Wind: 6mph
Humidity: 80%   Direction: 170°S
Pressure: 30.17"   Gusts: NA
Location:  41.2585°N, 87.4193°W
Report Text: KIGQ 261415Z AUTO 17005KT 10SM OVC014 M04/M07 A3017 RMK AO2 T10431072
Loading
Personal Weather Stations






























Interactive Weather Map New forecast layout! Learn more

10-Day Weather Forecast

Advertisements
Track Severe Weather on mobile